Denver, Colorado
Traffic Map
Current Weather Conditions
Denver, Colorado
Broken Clouds
Broken Clouds
14°
Feels Like: 14°
Wind Chill: 14° Ceiling: 22000
Heat Index: 14° Visibility: 10mi
Dew Point: -2° Wind: 12mph
Humidity: 35% Direction: 180° (S)
Pressure: 30.15in Gusts: 0mph
Raw Report DataKBKF 240958Z 18010KT 10SM BKN220 14/M02 A3015 RMK AO2A SLP146 T01361018
Traffic Incident Summary
Active as of:
Severity:
Category:
InformationThere was an issue retrieving the traffic information for this location. Please try a different location or try again shortly.
Advertisements
Track Severe Weather on mobile